createdAt,value
2017-11-12T00:00:25.625Z,6.70
2017-11-12T00:02:53.844Z,6.60
2017-11-12T00:05:21.320Z,6.60
2017-11-12T00:07:49.530Z,6.60
2017-11-12T00:10:16.970Z,6.60
2017-11-12T00:12:45.233Z,6.60
2017-11-12T00:15:12.666Z,6.50
2017-11-12T00:17:40.113Z,6.60
2017-11-12T00:20:08.350Z,6.40
2017-11-12T00:22:35.830Z,6.40
2017-11-12T00:25:03.309Z,6.40
2017-11-12T00:27:30.762Z,6.60
2017-11-12T00:29:58.219Z,6.50
2017-11-12T00:32:26.425Z,6.60
2017-11-12T00:34:53.899Z,6.60
2017-11-12T00:37:21.348Z,6.60
2017-11-12T00:39:49.578Z,6.40
2017-11-12T00:42:17.075Z,6.40
2017-11-12T00:44:44.552Z,6.30
2017-11-12T00:47:12.001Z,6.20
2017-11-12T00:49:39.480Z,6.30
2017-11-12T00:52:06.931Z,6.20
2017-11-12T00:54:35.156Z,6.30
2017-11-12T00:57:02.602Z,6.30
2017-11-12T00:59:30.057Z,6.30
2017-11-12T01:01:58.279Z,6.40
2017-11-12T01:04:25.754Z,6.30
2017-11-12T01:06:53.186Z,6.30
2017-11-12T01:09:20.669Z,6.40
2017-11-12T01:11:48.879Z,6.40
2017-11-12T01:14:16.356Z,6.40
2017-11-12T01:16:43.825Z,6.40
2017-11-12T01:19:11.288Z,6.50
2017-11-12T01:21:39.514Z,6.30
2017-11-12T01:24:06.959Z,6.30
2017-11-12T01:26:35.163Z,6.40
2017-11-12T01:29:02.630Z,6.40
2017-11-12T01:31:30.892Z,6.40
2017-11-12T01:33:58.349Z,6.40
2017-11-12T01:36:25.781Z,6.40
2017-11-12T01:38:53.249Z,6.30
2017-11-12T01:41:21.483Z,6.20
2017-11-12T01:43:48.968Z,6.20
2017-11-12T01:46:16.380Z,6.20
2017-11-12T01:48:44.616Z,6.30
2017-11-12T01:51:12.065Z,6.30
2017-11-12T01:53:39.660Z,6.20
2017-11-12T01:56:07.106Z,6.20
2017-11-12T01:58:35.331Z,6.30
2017-11-12T02:01:02.785Z,6.30
2017-11-12T02:03:30.217Z,6.30
2017-11-12T02:05:57.666Z,6.20
2017-11-12T02:08:25.237Z,6.20
2017-11-12T02:10:52.674Z,6.30
2017-11-12T02:13:20.142Z,6.20
2017-11-12T02:15:48.358Z,6.20
2017-11-12T02:18:15.838Z,6.20
2017-11-12T02:20:43.293Z,6.20
2017-11-12T02:23:10.782Z,6.20
2017-11-12T02:25:38.212Z,6.30
2017-11-12T02:28:05.674Z,6.20
2017-11-12T02:30:33.137Z,6.30
2017-11-12T02:33:00.592Z,6.40
2017-11-12T02:35:28.064Z,6.40
2017-11-12T02:37:55.517Z,6.40
2017-11-12T02:40:23.025Z,6.40
2017-11-12T02:42:50.461Z,6.30
2017-11-12T02:45:18.676Z,6.30
2017-11-12T02:47:46.150Z,6.30
2017-11-12T02:50:13.651Z,6.40
2017-11-12T02:52:41.112Z,6.40
2017-11-12T02:55:08.585Z,6.40
2017-11-12T02:57:36.024Z,6.40
2017-11-12T03:00:04.226Z,6.30
2017-11-12T03:02:31.706Z,6.30
2017-11-12T03:04:59.306Z,6.30
2017-11-12T03:07:26.795Z,6.20
2017-11-12T03:09:54.241Z,6.30
2017-11-12T03:12:21.807Z,6.30
2017-11-12T03:14:49.289Z,6.30
2017-11-12T03:17:16.741Z,6.30
2017-11-12T03:19:44.976Z,6.20
2017-11-12T03:22:12.437Z,6.20
2017-11-12T03:24:39.893Z,6.30
2017-11-12T03:27:08.153Z,6.10
2017-11-12T03:29:35.624Z,6.10
2017-11-12T03:32:03.179Z,6.00
2017-11-12T03:34:30.626Z,6.00
2017-11-12T03:36:58.098Z,6.10
2017-11-12T03:39:25.534Z,6.10
2017-11-12T03:41:53.004Z,6.20
2017-11-12T03:44:20.445Z,6.20
2017-11-12T03:46:47.878Z,6.10
2017-11-12T03:49:16.097Z,6.10
2017-11-12T03:51:43.538Z,6.00
2017-11-12T03:54:11.771Z,6.00
2017-11-12T03:56:39.232Z,6.00
2017-11-12T03:59:06.700Z,6.00
2017-11-12T04:01:34.158Z,5.90
2017-11-12T04:04:02.393Z,5.80
2017-11-12T04:06:29.863Z,5.80
2017-11-12T04:08:57.313Z,5.80
2017-11-12T04:11:25.514Z,5.80
2017-11-12T04:13:52.993Z,5.70
2017-11-12T04:16:24.328Z,5.70
2017-11-12T04:18:51.770Z,5.70
2017-11-12T04:21:19.978Z,5.70
2017-11-12T04:23:47.529Z,5.70
2017-11-12T04:26:15.008Z,5.70
2017-11-12T04:28:42.429Z,5.80
2017-11-12T04:31:11.072Z,5.80
2017-11-12T04:33:38.511Z,5.80
2017-11-12T04:36:06.762Z,5.80
2017-11-12T04:38:34.205Z,5.80
2017-11-12T04:41:01.680Z,5.90
2017-11-12T04:43:29.123Z,5.90
2017-11-12T04:45:57.333Z,5.90
2017-11-12T04:48:24.822Z,5.90
2017-11-12T04:50:52.259Z,5.80
2017-11-12T04:53:20.492Z,5.90
2017-11-12T04:55:47.932Z,5.90
2017-11-12T04:58:15.402Z,5.90
2017-11-12T05:00:43.601Z,5.90
2017-11-12T05:03:11.045Z,5.90
2017-11-12T05:05:38.521Z,5.90
2017-11-12T05:08:05.964Z,5.90
2017-11-12T05:10:33.448Z,6.00
2017-11-12T05:13:00.909Z,6.00
2017-11-12T05:15:28.373Z,6.00
2017-11-12T05:17:55.818Z,5.90
2017-11-12T05:20:24.039Z,5.90
2017-11-12T05:22:51.481Z,5.90
2017-11-12T05:25:19.691Z,5.90
2017-11-12T05:27:47.162Z,5.90
2017-11-12T05:30:14.640Z,5.90
2017-11-12T05:32:42.088Z,5.90
2017-11-12T05:35:10.325Z,5.80
2017-11-12T05:37:37.815Z,5.80
2017-11-12T05:40:06.042Z,5.80
2017-11-12T05:42:33.560Z,5.80
2017-11-12T05:45:01.066Z,5.80
2017-11-12T05:47:28.529Z,5.80
2017-11-12T05:49:55.977Z,5.80
2017-11-12T05:52:23.451Z,5.80
2017-11-12T05:54:51.659Z,5.80
2017-11-12T05:57:19.114Z,5.80
2017-11-12T05:59:46.573Z,5.80
2017-11-12T06:02:14.777Z,5.80
2017-11-12T06:04:42.246Z,5.80
2017-11-12T06:07:10.465Z,5.80
2017-11-12T06:09:37.902Z,5.80
2017-11-12T06:12:06.132Z,5.80
2017-11-12T06:14:33.594Z,5.80
2017-11-12T06:17:01.048Z,5.80
2017-11-12T06:19:29.261Z,5.90
2017-11-12T06:21:56.739Z,5.80
2017-11-12T06:24:24.183Z,5.90
2017-11-12T06:26:52.399Z,5.80
2017-11-12T06:29:19.876Z,5.80
2017-11-12T06:31:47.337Z,5.90
2017-11-12T06:34:15.538Z,5.90
2017-11-12T06:36:42.992Z,5.90
2017-11-12T06:39:11.225Z,5.90
2017-11-12T06:41:38.670Z,5.80
2017-11-12T06:44:06.872Z,5.90
2017-11-12T06:46:34.334Z,5.90
2017-11-12T06:49:02.567Z,5.90
2017-11-12T06:51:30.006Z,5.90
2017-11-12T06:53:57.453Z,5.90
2017-11-12T06:56:24.921Z,5.90
2017-11-12T06:58:52.366Z,6.00
2017-11-12T07:01:19.855Z,6.00
2017-11-12T07:03:47.309Z,6.00
2017-11-12T07:06:14.765Z,6.10
2017-11-12T07:08:42.226Z,6.00
2017-11-12T07:11:09.821Z,6.10
2017-11-12T07:13:37.281Z,6.20
2017-11-12T07:16:05.502Z,6.00
2017-11-12T07:18:33.023Z,6.00
2017-11-12T07:21:00.477Z,6.10
2017-11-12T07:23:27.930Z,6.10
2017-11-12T07:25:55.376Z,6.10
2017-11-12T07:28:23.590Z,6.10
2017-11-12T07:30:51.039Z,6.10
2017-11-12T07:33:19.282Z,6.40
2017-11-12T07:35:46.793Z,6.40
2017-11-12T07:38:15.109Z,6.10
2017-11-12T07:40:42.584Z,6.10
2017-11-12T07:43:10.802Z,6.20
2017-11-12T07:45:38.234Z,6.20
2017-11-12T07:48:06.457Z,6.30
2017-11-12T07:50:34.022Z,6.30
2017-11-12T07:53:02.211Z,6.30
2017-11-12T07:55:29.705Z,6.30
2017-11-12T07:57:57.186Z,6.20
2017-11-12T08:00:24.658Z,6.10
2017-11-12T08:02:52.104Z,6.00
2017-11-12T08:05:20.333Z,6.00
2017-11-12T08:07:47.779Z,5.90
2017-11-12T08:10:15.244Z,6.00
2017-11-12T08:12:43.474Z,6.10
2017-11-12T08:15:11.001Z,6.10
2017-11-12T08:17:39.264Z,5.90
2017-11-12T08:20:06.694Z,5.90
2017-11-12T08:22:34.164Z,5.90
2017-11-12T08:25:02.355Z,6.00
2017-11-12T08:27:29.827Z,6.00
2017-11-12T08:29:57.286Z,6.00
2017-11-12T08:32:25.497Z,5.90
2017-11-12T08:34:53.096Z,5.90
2017-11-12T08:37:20.537Z,5.80
2017-11-12T08:39:48.768Z,5.90
2017-11-12T08:42:16.218Z,5.90
2017-11-12T08:44:43.674Z,6.00
2017-11-12T08:47:11.896Z,6.20
2017-11-12T08:49:39.354Z,6.10
2017-11-12T08:52:06.897Z,6.20
2017-11-12T08:54:34.363Z,6.20
2017-11-12T08:57:01.849Z,6.10
2017-11-12T08:59:29.288Z,6.10
2017-11-12T09:01:56.742Z,6.20
2017-11-12T09:04:24.217Z,6.40
2017-11-12T09:06:51.696Z,6.40
2017-11-12T09:09:19.142Z,6.40
2017-11-12T09:11:47.387Z,6.50
2017-11-12T09:14:14.836Z,6.40
2017-11-12T09:16:42.348Z,6.50
2017-11-12T09:19:09.806Z,6.50
2017-11-12T09:21:37.259Z,6.50
2017-11-12T09:24:04.931Z,6.50
2017-11-12T09:26:33.134Z,6.60
2017-11-12T09:29:00.599Z,6.60
2017-11-12T09:31:28.054Z,6.50
2017-11-12T09:33:55.500Z,6.50
2017-11-12T09:36:22.977Z,6.60
2017-11-12T09:38:50.402Z,6.50
2017-11-12T09:41:20.602Z,6.60
2017-11-12T09:43:48.051Z,6.60
2017-11-12T09:46:15.611Z,6.50
2017-11-12T09:48:43.065Z,6.50
2017-11-12T09:51:10.540Z,6.50
2017-11-12T09:53:37.994Z,6.50
2017-11-12T09:56:06.257Z,6.40
2017-11-12T09:58:37.557Z,6.40
2017-11-12T10:01:05.086Z,6.40
2017-11-12T10:03:37.441Z,6.40
2017-11-12T10:06:04.890Z,6.30
2017-11-12T10:08:33.121Z,6.20
2017-11-12T10:11:00.576Z,6.20
2017-11-12T10:13:28.056Z,6.20
2017-11-12T10:15:55.533Z,6.20
2017-11-12T10:18:22.983Z,6.20
2017-11-12T10:20:51.218Z,6.30
2017-11-12T10:23:18.663Z,6.30
2017-11-12T10:25:46.143Z,6.30
2017-11-12T10:28:13.603Z,6.00
2017-11-12T10:30:41.123Z,5.80
2017-11-12T10:33:08.602Z,5.80
2017-11-12T10:35:36.039Z,5.90
2017-11-12T10:38:03.512Z,6.10
2017-11-12T10:40:30.986Z,6.20
2017-11-12T10:42:58.501Z,6.30
2017-11-12T10:45:25.950Z,6.40
2017-11-12T10:47:53.417Z,6.20
2017-11-12T10:50:20.886Z,6.10
2017-11-12T10:52:48.347Z,6.10
2017-11-12T10:55:16.587Z,6.30
2017-11-12T10:57:44.360Z,6.30
2017-11-12T11:00:11.851Z,6.00
2017-11-12T11:02:39.349Z,6.00
2017-11-12T11:05:06.829Z,6.10
2017-11-12T11:07:34.278Z,6.30
2017-11-12T11:10:01.742Z,6.30
2017-11-12T11:12:29.696Z,6.40
2017-11-12T11:14:57.138Z,6.20
2017-11-12T11:17:24.612Z,6.30
2017-11-12T11:19:52.056Z,6.30
2017-11-12T11:22:19.634Z,6.30
2017-11-12T11:24:47.070Z,6.30
2017-11-12T11:27:14.557Z,6.30
2017-11-12T11:29:42.027Z,6.20
2017-11-12T11:32:09.492Z,6.20
2017-11-12T11:34:38.244Z,6.20
2017-11-12T11:37:06.451Z,6.20
2017-11-12T11:39:33.922Z,6.20
2017-11-12T11:42:01.853Z,6.20
2017-11-12T11:44:29.322Z,6.30
2017-11-12T11:46:57.908Z,6.10
2017-11-12T11:49:25.473Z,6.10
2017-11-12T11:51:52.926Z,6.10
2017-11-12T11:54:20.387Z,6.20
2017-11-12T11:56:48.309Z,6.20
2017-11-12T11:59:16.206Z,6.20
2017-11-12T12:01:44.438Z,6.10
2017-11-12T12:04:11.904Z,6.00
2017-11-12T12:06:39.372Z,6.00
2017-11-12T12:09:06.821Z,6.10
2017-11-12T12:11:35.722Z,6.00
2017-11-12T12:14:03.961Z,6.00
2017-11-12T12:16:31.954Z,6.00
2017-11-12T12:18:59.432Z,6.00
2017-11-12T12:21:26.874Z,5.90
2017-11-12T12:23:54.325Z,5.70
2017-11-12T12:26:22.538Z,5.70
2017-11-12T12:28:50.790Z,5.80
2017-11-12T12:31:18.257Z,5.70
2017-11-12T12:33:45.697Z,5.70
2017-11-12T12:36:13.165Z,5.70
2017-11-12T12:38:40.609Z,5.70
2017-11-12T12:41:09.073Z,5.80
2017-11-12T12:43:36.529Z,5.80
2017-11-12T12:46:03.989Z,5.70
2017-11-12T12:48:31.425Z,5.70
2017-11-12T12:50:58.924Z,5.70
2017-11-12T12:53:27.154Z,5.80
2017-11-12T12:55:54.616Z,5.80
2017-11-12T12:58:22.077Z,5.80
2017-11-12T13:00:49.540Z,5.80
2017-11-12T13:03:17.780Z,5.70
2017-11-12T13:05:45.225Z,5.60
2017-11-12T13:08:12.698Z,5.70
2017-11-12T13:10:40.138Z,5.60
2017-11-12T13:13:07.574Z,5.70
2017-11-12T13:15:35.026Z,5.70
2017-11-12T13:18:02.466Z,5.60
2017-11-12T13:20:30.680Z,5.60
2017-11-12T13:22:58.126Z,5.60
2017-11-12T13:25:26.360Z,5.80
2017-11-12T13:27:53.805Z,5.70
2017-11-12T13:30:22.077Z,5.80
2017-11-12T13:32:49.543Z,5.80
2017-11-12T13:35:16.995Z,5.80
2017-11-12T13:37:44.455Z,5.70
2017-11-12T13:40:11.982Z,5.70
2017-11-12T13:42:39.431Z,5.60
2017-11-12T13:45:06.896Z,5.70
2017-11-12T13:47:38.385Z,5.70
2017-11-12T13:50:06.009Z,5.70
2017-11-12T13:52:34.237Z,5.80
2017-11-12T13:55:01.693Z,5.80
2017-11-12T13:57:29.151Z,5.70
2017-11-12T13:59:56.604Z,5.90
2017-11-12T14:02:24.921Z,6.00
2017-11-12T14:04:52.378Z,6.00
2017-11-12T14:07:20.606Z,6.10
2017-11-12T14:09:48.050Z,6.10
2017-11-12T14:12:16.288Z,6.00
2017-11-12T14:14:43.739Z,6.00
2017-11-12T14:17:11.178Z,6.00
2017-11-12T14:19:39.413Z,6.30
2017-11-12T14:22:06.850Z,6.20
2017-11-12T14:24:35.046Z,6.50
2017-11-12T14:27:04.100Z,6.30
2017-11-12T14:29:31.529Z,6.30
2017-11-12T14:31:59.755Z,6.00
2017-11-12T14:34:27.190Z,6.00
2017-11-12T14:36:55.424Z,6.10
2017-11-12T14:39:23.624Z,6.10
2017-11-12T14:41:51.102Z,6.20
2017-11-12T14:44:18.549Z,6.20
2017-11-12T14:46:46.037Z,6.10
2017-11-12T14:49:13.496Z,6.00
2017-11-12T14:51:40.953Z,6.10
2017-11-12T14:54:09.167Z,6.00
2017-11-12T14:56:36.658Z,6.00
2017-11-12T14:59:04.124Z,5.90
2017-11-12T15:01:31.624Z,5.90
2017-11-12T15:03:59.055Z,5.90
2017-11-12T15:06:27.270Z,5.80
2017-11-12T15:08:54.729Z,5.80
2017-11-12T15:11:22.846Z,5.50
2017-11-12T15:13:50.290Z,5.60
2017-11-12T15:16:17.734Z,5.50
2017-11-12T15:18:45.218Z,5.60
2017-11-12T15:21:12.634Z,5.70
2017-11-12T15:23:40.126Z,5.70
2017-11-12T15:26:07.564Z,5.70
2017-11-12T15:28:35.146Z,5.70
2017-11-12T15:31:03.373Z,5.60
2017-11-12T15:33:30.835Z,5.60
2017-11-12T15:35:58.278Z,5.60
2017-11-12T15:38:26.482Z,5.70
2017-11-12T15:40:53.958Z,5.70
2017-11-12T15:43:21.410Z,5.60
2017-11-12T15:45:49.659Z,5.50
2017-11-12T15:48:17.400Z,5.50
2017-11-12T15:50:46.300Z,5.50
2017-11-12T15:53:14.563Z,5.30
2017-11-12T15:55:42.228Z,5.30
2017-11-12T15:58:09.684Z,5.50
2017-11-12T16:00:37.146Z,5.40
2017-11-12T16:03:04.608Z,5.50
2017-11-12T16:05:32.149Z,5.40
2017-11-12T16:08:00.384Z,5.50
2017-11-12T16:10:27.891Z,5.50
2017-11-12T16:12:56.007Z,5.50
2017-11-12T16:15:23.476Z,5.40
2017-11-12T16:17:50.954Z,5.40
2017-11-12T16:20:18.402Z,5.40
2017-11-12T16:22:45.850Z,5.40
2017-11-12T16:25:13.622Z,5.40
2017-11-12T16:27:41.823Z,5.40
2017-11-12T16:30:10.072Z,5.40
2017-11-12T16:32:37.518Z,5.30
2017-11-12T16:35:04.973Z,5.40
2017-11-12T16:37:32.459Z,5.40
2017-11-12T16:39:59.962Z,5.30
2017-11-12T16:42:27.401Z,5.30
2017-11-12T16:44:54.847Z,5.40
2017-11-12T16:47:22.334Z,5.30
2017-11-12T16:49:50.552Z,5.30
2017-11-12T16:52:17.987Z,5.30
2017-11-12T16:54:47.729Z,5.40
2017-11-12T16:57:15.255Z,5.40
2017-11-12T16:59:42.724Z,5.40
2017-11-12T17:02:10.206Z,5.30
2017-11-12T17:04:38.710Z,5.30
2017-11-12T17:07:06.184Z,5.30
2017-11-12T17:09:33.646Z,5.20
2017-11-12T17:12:01.098Z,5.30
2017-11-12T17:14:28.577Z,5.20
2017-11-12T17:16:56.036Z,5.20
2017-11-12T17:19:23.503Z,5.20
2017-11-12T17:21:51.383Z,5.20
2017-11-12T17:24:19.694Z,5.20
2017-11-12T17:26:47.206Z,5.10
2017-11-12T17:29:15.454Z,5.20
2017-11-12T17:31:42.942Z,5.20
2017-11-12T17:34:10.775Z,5.20
2017-11-12T17:36:38.261Z,5.20
2017-11-12T17:39:06.511Z,5.10
2017-11-12T17:41:35.056Z,5.10
2017-11-12T17:44:03.350Z,5.10
2017-11-12T17:46:31.591Z,5.10
2017-11-12T17:48:59.027Z,5.20
2017-11-12T17:51:27.242Z,5.10
2017-11-12T17:53:54.734Z,5.10
2017-11-12T17:56:22.436Z,5.10
2017-11-12T17:58:49.946Z,5.10
2017-11-12T18:01:18.795Z,5.10
2017-11-12T18:03:46.283Z,5.10
2017-11-12T18:06:13.773Z,5.10
2017-11-12T18:08:41.258Z,5.10
2017-11-12T18:11:08.737Z,5.10
2017-11-12T18:13:36.288Z,5.10
2017-11-12T18:16:03.747Z,5.10
2017-11-12T18:18:31.474Z,5.10
2017-11-12T18:20:59.733Z,5.20
2017-11-12T18:23:27.190Z,5.10
2017-11-12T18:25:54.647Z,5.10
2017-11-12T18:28:22.132Z,5.00
2017-11-12T18:30:49.689Z,5.10
2017-11-12T18:33:17.176Z,5.10
2017-11-12T18:35:44.617Z,5.00
2017-11-12T18:38:12.859Z,5.10
2017-11-12T18:40:40.554Z,5.00
2017-11-12T18:43:08.000Z,5.00
2017-11-12T18:45:35.524Z,4.90
2017-11-12T18:48:03.012Z,5.00
2017-11-12T18:50:30.586Z,4.90
2017-11-12T18:52:58.869Z,4.80
2017-11-12T18:55:41.017Z,4.80
2017-11-12T18:58:12.129Z,4.80
2017-11-12T19:00:56.636Z,4.80
2017-11-12T19:03:37.631Z,4.90
2017-11-12T19:06:06.007Z,4.90
2017-11-12T19:08:37.203Z,5.10
2017-11-12T19:11:04.658Z,5.10
2017-11-12T19:13:32.173Z,5.10
2017-11-12T19:16:00.654Z,5.10
2017-11-12T19:18:43.084Z,5.10
2017-11-12T19:21:10.540Z,5.20
2017-11-12T19:23:39.972Z,5.20
2017-11-12T19:26:22.410Z,5.20
2017-11-12T19:28:50.516Z,5.20
2017-11-12T19:31:18.010Z,5.10
2017-11-12T19:33:45.562Z,5.20
2017-11-12T19:36:13.092Z,5.10
2017-11-12T19:41:12.715Z,5.20
2017-11-12T19:43:40.979Z,5.20
2017-11-12T19:46:08.438Z,5.20
2017-11-12T19:48:35.947Z,5.30
2017-11-12T19:51:04.482Z,5.20
2017-11-12T19:53:32.974Z,5.30
2017-11-12T19:56:02.148Z,5.30
2017-11-12T19:58:30.513Z,5.30
2017-11-12T20:00:57.968Z,5.30
2017-11-12T20:03:25.439Z,5.30
2017-11-12T20:05:53.425Z,5.10
2017-11-12T20:08:21.683Z,5.20
2017-11-12T20:10:49.130Z,5.20
2017-11-12T20:13:16.590Z,5.20
2017-11-12T20:15:44.046Z,5.20
2017-11-12T20:18:12.163Z,5.10
2017-11-12T20:20:39.797Z,5.20
2017-11-12T20:23:08.059Z,5.30
2017-11-12T20:25:39.721Z,5.30
2017-11-12T20:28:07.211Z,5.40
2017-11-12T20:30:34.739Z,5.30
2017-11-12T20:33:02.240Z,5.40
2017-11-12T20:35:29.755Z,5.40
2017-11-12T20:37:57.247Z,5.40
2017-11-12T20:40:25.506Z,5.40
2017-11-12T20:42:52.973Z,5.40
2017-11-12T20:45:20.446Z,5.50
2017-11-12T20:47:47.976Z,5.30
2017-11-12T20:50:15.449Z,5.30
2017-11-12T20:52:45.058Z,5.40
2017-11-12T20:55:13.199Z,5.40
2017-11-12T20:57:40.700Z,5.30
2017-11-12T21:00:08.165Z,5.30
2017-11-12T21:02:36.614Z,5.40
2017-11-12T21:05:08.754Z,5.40
2017-11-12T21:07:36.257Z,5.30
2017-11-12T21:10:04.724Z,5.30
2017-11-12T21:12:32.183Z,5.30
2017-11-12T21:14:59.751Z,5.30
2017-11-12T21:17:27.268Z,5.30
2017-11-12T21:19:56.330Z,5.30
2017-11-12T21:22:27.400Z,5.10
2017-11-12T21:24:55.223Z,5.20
2017-11-12T21:27:29.026Z,5.20
2017-11-12T21:29:58.162Z,5.20
2017-11-12T21:32:37.259Z,5.20
2017-11-12T21:35:16.230Z,5.20
2017-11-12T21:37:44.442Z,5.20
2017-11-12T21:40:11.991Z,5.20
2017-11-12T21:42:39.699Z,5.20
2017-11-12T21:45:07.233Z,5.00
2017-11-12T21:47:34.698Z,5.10
2017-11-12T21:50:02.213Z,5.10
2017-11-12T21:52:30.426Z,5.20
2017-11-12T21:54:57.921Z,5.20
2017-11-12T21:57:25.411Z,5.10
2017-11-12T21:59:52.899Z,5.10
2017-11-12T22:02:21.306Z,5.20
2017-11-12T22:04:48.780Z,5.10
2017-11-12T22:07:16.229Z,5.10
2017-11-12T22:09:44.507Z,5.20
2017-11-12T22:12:11.970Z,5.20
2017-11-12T22:14:39.477Z,5.30
2017-11-12T22:17:06.948Z,5.20
2017-11-12T22:19:34.424Z,5.30
2017-11-12T22:22:01.922Z,5.30
2017-11-12T22:24:29.368Z,5.40
2017-11-12T22:26:56.827Z,5.40
2017-11-12T22:29:24.915Z,5.40
2017-11-12T22:31:52.373Z,5.30
2017-11-12T22:34:19.842Z,5.40
2017-11-12T22:36:52.066Z,5.50
2017-11-12T22:39:19.515Z,5.50
2017-11-12T22:41:46.986Z,5.50
2017-11-12T22:44:14.537Z,5.40
2017-11-12T22:46:42.753Z,5.50
2017-11-12T22:49:10.260Z,5.40
2017-11-12T22:51:37.713Z,5.50
2017-11-12T22:54:05.180Z,5.50
2017-11-12T22:56:32.604Z,5.60
2017-11-12T22:59:00.102Z,5.60
2017-11-12T23:01:27.533Z,5.60
2017-11-12T23:03:54.986Z,5.60
2017-11-12T23:06:23.206Z,5.60
2017-11-12T23:08:54.636Z,5.60
2017-11-12T23:11:22.122Z,5.50
2017-11-12T23:13:49.618Z,5.60
2017-11-12T23:16:17.067Z,5.50
2017-11-12T23:18:44.521Z,5.50
2017-11-12T23:21:12.733Z,5.60
2017-11-12T23:23:40.206Z,5.60
2017-11-12T23:26:07.676Z,5.60
2017-11-12T23:28:35.260Z,5.60
2017-11-12T23:31:02.699Z,5.50
2017-11-12T23:33:30.147Z,5.60
2017-11-12T23:35:57.578Z,5.60
2017-11-12T23:38:25.030Z,5.60
2017-11-12T23:40:53.250Z,5.50
2017-11-12T23:43:26.090Z,5.50
2017-11-12T23:45:53.552Z,5.60
2017-11-12T23:48:20.993Z,5.60
2017-11-12T23:50:48.484Z,5.60
2017-11-12T23:53:15.928Z,5.60
2017-11-12T23:55:44.157Z,5.40
2017-11-12T23:58:11.582Z,5.50
